Point Reyes Station, California
Current Conditions -  °F | °C
As of 7:15 PM on Tuesday 25 Nov 2014 (Local Time) from KDVO Reporting Station
Clear Clear  
Wind Chill: 12°   Ceiling: Unl
Heat Index: 12°   Visibility: 10mi
Dew Point:   Wind: 5mph
Humidity: 82%   Direction: 210°SSW
Pressure: 30.37"   Gusts: NA
Location:  38.07°N, 122.81°W
Report Text: KDVO 260315Z AUTO 21004KT 10SM CLR 12/09 A3037 RMK AO2
Loading
Personal Weather Stations






























Interactive Weather Map New forecast layout! Learn more

10-Day Weather Forecast

Advertisements
Track Severe Weather on mobile